createdAt,value
2022-12-01T00:01:18.969Z,51.90
2022-12-01T00:03:46.573Z,59.88
2022-12-01T00:06:17.070Z,56.53
2022-12-01T00:09:07.520Z,73.20
2022-12-01T00:11:35.199Z,69.70
2022-12-01T00:14:03.336Z,66.43
2022-12-01T00:16:31.638Z,63.75
2022-12-01T00:18:59.780Z,59.97
2022-12-01T00:21:28.287Z,58.17
2022-12-01T00:23:58.889Z,65.25
2022-12-01T00:26:27.943Z,65.78
2022-12-01T00:28:57.463Z,65.78
2022-12-01T00:31:26.167Z,64.20
2022-12-01T00:33:54.204Z,60.70
2022-12-01T00:36:22.972Z,61.95
2022-12-01T00:38:53.461Z,66.45
2022-12-01T00:41:23.460Z,60.92
2022-12-01T00:43:51.474Z,60.30
2022-12-01T00:46:19.942Z,57.38
2022-12-01T00:48:47.782Z,72.43
2022-12-01T00:51:15.408Z,69.18
2022-12-01T00:53:43.037Z,97.70
2022-12-01T00:56:10.707Z,66.75
2022-12-01T00:58:39.674Z,61.90
2022-12-01T01:01:07.645Z,90.05
2022-12-01T01:03:35.632Z,55.10
2022-12-01T01:06:08.517Z,66.88
2022-12-01T01:08:36.473Z,78.35
2022-12-01T01:11:04.805Z,87.63
2022-12-01T01:13:32.771Z,84.97
2022-12-01T01:16:03.893Z,66.47
2022-12-01T01:18:31.970Z,72.07
2022-12-01T01:21:01.262Z,110.18
2022-12-01T01:23:28.922Z,88.38
2022-12-01T01:26:02.071Z,105.28
2022-12-01T01:28:30.718Z,67.95
2022-12-01T01:30:58.438Z,86.18
2022-12-01T01:33:27.573Z,80.20
2022-12-01T01:35:55.236Z,76.45
2022-12-01T01:38:23.003Z,76.47
2022-12-01T01:40:50.657Z,87.80
2022-12-01T01:43:37.499Z,84.13
2022-12-01T01:46:05.778Z,88.25
2022-12-01T01:48:36.546Z,80.00
2022-12-01T01:51:04.700Z,101.35
2022-12-01T01:53:33.306Z,92.10
2022-12-01T01:56:03.305Z,70.93
2022-12-01T01:58:32.833Z,93.18
2022-12-01T02:01:00.509Z,83.88
2022-12-01T02:03:29.287Z,69.63
2022-12-01T02:06:03.434Z,78.85
2022-12-01T02:08:35.287Z,75.97
2022-12-01T02:11:29.766Z,63.85
2022-12-01T02:14:09.385Z,60.08
2022-12-01T02:16:45.451Z,66.25
2022-12-01T02:19:43.694Z,79.70
2022-12-01T02:22:23.173Z,63.33
2022-12-01T02:25:14.089Z,76.97
2022-12-01T02:28:03.984Z,78.47
2022-12-01T02:30:40.172Z,104.85
2022-12-01T02:33:12.938Z,85.78
2022-12-01T02:35:48.180Z,67.18
2022-12-01T02:38:22.531Z,65.80
2022-12-01T02:40:56.671Z,72.22
2022-12-01T02:43:31.006Z,74.43
2022-12-01T02:46:03.852Z,74.75
2022-12-01T02:48:34.848Z,71.95
2022-12-01T02:51:08.222Z,59.55
2022-12-01T02:53:36.338Z,74.72
2022-12-01T02:56:10.557Z,61.10
2022-12-01T02:58:38.244Z,65.43
2022-12-01T03:01:21.212Z,63.22
2022-12-01T03:04:11.125Z,68.10
2022-12-01T03:06:49.190Z,57.70
2022-12-01T03:09:28.155Z,68.97
2022-12-01T03:12:06.464Z,62.85
2022-12-01T03:14:40.515Z,58.47
2022-12-01T03:17:16.148Z,57.28
2022-12-01T03:19:47.463Z,68.72
2022-12-01T03:22:20.216Z,64.88
2022-12-01T03:24:50.531Z,56.70
2022-12-01T03:27:23.576Z,70.82
2022-12-01T03:29:54.959Z,80.13
2022-12-01T03:32:28.347Z,70.32
2022-12-01T03:34:59.854Z,64.80
2022-12-01T03:37:34.051Z,66.60
2022-12-01T03:40:06.278Z,70.45
2022-12-01T03:42:38.690Z,61.67
2022-12-01T03:45:10.562Z,62.50
2022-12-01T03:47:40.464Z,66.28
2022-12-01T03:50:13.847Z,59.65
2022-12-01T03:53:03.935Z,72.70
2022-12-01T03:55:37.811Z,71.43
2022-12-01T03:58:39.550Z,67.97
2022-12-01T04:01:08.728Z,57.85
2022-12-01T04:03:37.660Z,72.28
2022-12-01T04:06:06.174Z,70.32
2022-12-01T04:08:33.938Z,67.38
2022-12-01T04:11:21.595Z,67.20
2022-12-01T04:13:48.220Z,65.93
2022-12-01T04:16:15.921Z,66.35
2022-12-01T04:18:45.112Z,60.90
2022-12-01T04:21:12.791Z,53.22
2022-12-01T04:23:57.942Z,72.20
2022-12-01T04:26:25.740Z,54.42
2022-12-01T04:28:53.420Z,68.28
2022-12-01T04:31:21.078Z,56.70
2022-12-01T04:33:50.125Z,55.53
2022-12-01T04:36:17.747Z,52.05
2022-12-01T04:38:45.387Z,67.50
2022-12-01T04:41:14.102Z,61.30
2022-12-01T04:43:42.190Z,54.97
2022-12-01T04:46:10.325Z,47.25
2022-12-01T04:48:39.088Z,51.22
2022-12-01T04:51:09.276Z,52.47
2022-12-01T04:53:37.345Z,50.35
2022-12-01T04:56:05.638Z,49.55
2022-12-01T04:58:34.719Z,46.08
2022-12-01T05:01:03.837Z,49.78
2022-12-01T05:03:31.466Z,43.15
2022-12-01T05:06:03.345Z,51.05
2022-12-01T05:08:32.297Z,44.47
2022-12-01T05:10:59.993Z,40.65
2022-12-01T05:13:28.466Z,46.83
2022-12-01T05:16:05.805Z,52.42
2022-12-01T05:18:33.585Z,53.28
2022-12-01T05:21:00.375Z,55.78
2022-12-01T05:23:29.935Z,57.08
2022-12-01T05:25:58.991Z,42.15
2022-12-01T05:28:27.715Z,65.65
2022-12-01T05:30:55.707Z,52.25
2022-12-01T05:33:23.889Z,53.28
2022-12-01T05:35:52.319Z,63.25
2022-12-01T05:38:20.557Z,44.28
2022-12-01T05:40:52.273Z,48.92
2022-12-01T05:43:28.250Z,61.55
2022-12-01T05:45:57.786Z,51.58
2022-12-01T05:48:25.550Z,49.15
2022-12-01T05:50:53.276Z,53.47
2022-12-01T05:53:21.063Z,57.38
2022-12-01T05:55:53.260Z,47.17
2022-12-01T05:58:22.400Z,44.03
2022-12-01T06:00:50.074Z,49.42
2022-12-01T06:03:17.678Z,47.53
2022-12-01T06:05:45.372Z,42.85
2022-12-01T06:08:13.061Z,44.42
2022-12-01T06:10:40.733Z,44.17
2022-12-01T06:13:08.435Z,43.78
2022-12-01T06:15:37.513Z,37.60
2022-12-01T06:18:05.318Z,39.65
2022-12-01T06:20:32.987Z,49.33
2022-12-01T06:23:00.638Z,35.83
2022-12-01T06:25:28.289Z,41.33
2022-12-01T06:27:57.328Z,43.75
2022-12-01T06:30:25.348Z,50.65
2022-12-01T06:32:54.524Z,50.40
2022-12-01T06:35:22.165Z,41.58
2022-12-01T06:37:49.851Z,41.53
2022-12-01T06:40:17.881Z,36.35
2022-12-01T06:42:45.599Z,45.75
2022-12-01T06:45:13.326Z,54.08
2022-12-01T06:47:41.278Z,54.67
2022-12-01T06:50:12.217Z,55.40
2022-12-01T06:52:40.041Z,49.55
2022-12-01T06:55:08.274Z,52.20
2022-12-01T06:57:36.037Z,54.28
2022-12-01T07:00:05.183Z,51.63
2022-12-01T07:02:33.060Z,63.08
2022-12-01T07:05:00.947Z,55.63
2022-12-01T07:07:29.989Z,54.65
2022-12-01T07:09:57.623Z,59.75
2022-12-01T07:12:25.312Z,53.53
2022-12-01T07:14:52.941Z,55.20
2022-12-01T07:17:20.594Z,68.50
2022-12-01T07:19:48.531Z,67.30
2022-12-01T07:22:16.535Z,77.65
2022-12-01T07:24:45.519Z,89.40
2022-12-01T07:27:13.165Z,84.78
2022-12-01T07:29:40.813Z,71.65
2022-12-01T07:32:08.446Z,78.20
2022-12-01T07:34:36.041Z,75.10
2022-12-01T07:37:03.681Z,84.75
2022-12-01T07:39:31.293Z,80.45
2022-12-01T07:42:00.316Z,88.28
2022-12-01T07:44:27.985Z,82.93
2022-12-01T07:46:55.717Z,93.10
2022-12-01T07:49:23.426Z,72.22
2022-12-01T07:51:51.117Z,90.40
2022-12-01T07:54:20.916Z,80.57
2022-12-01T07:56:48.556Z,75.30
2022-12-01T07:59:17.546Z,85.07
2022-12-01T08:01:46.192Z,90.45
2022-12-01T08:04:13.951Z,64.68
2022-12-01T08:06:41.703Z,61.83
2022-12-01T08:09:09.475Z,53.67
2022-12-01T08:11:37.127Z,63.58
2022-12-01T08:14:04.776Z,52.40
2022-12-01T08:16:33.815Z,54.70
2022-12-01T08:19:01.596Z,45.67
2022-12-01T08:21:29.259Z,60.28
2022-12-01T08:23:58.918Z,62.47
2022-12-01T08:26:27.350Z,42.78
2022-12-01T08:28:55.097Z,41.78
2022-12-01T08:31:25.642Z,46.85
2022-12-01T08:33:55.414Z,51.92
2022-12-01T08:36:24.308Z,59.97
2022-12-01T08:38:53.936Z,45.80
2022-12-01T08:41:22.472Z,43.95
2022-12-01T08:43:57.965Z,41.28
2022-12-01T08:46:27.145Z,37.80
2022-12-01T08:48:57.392Z,35.33
2022-12-01T08:51:25.854Z,40.67
2022-12-01T08:53:53.604Z,35.75
2022-12-01T08:56:25.606Z,34.00
2022-12-01T08:58:54.745Z,36.20
2022-12-01T09:01:22.904Z,35.72
2022-12-01T09:04:04.906Z,36.03
2022-12-01T09:06:35.412Z,34.83
2022-12-01T09:09:03.070Z,42.95
2022-12-01T09:11:30.877Z,41.90
2022-12-01T09:14:00.551Z,38.17
2022-12-01T09:16:28.424Z,39.15
2022-12-01T09:18:56.432Z,46.80
2022-12-01T09:21:25.911Z,45.60
2022-12-01T09:23:55.326Z,45.58
2022-12-01T09:26:23.730Z,41.45
2022-12-01T09:28:54.428Z,48.30
2022-12-01T09:31:23.274Z,49.55
2022-12-01T09:33:55.944Z,44.80
2022-12-01T09:36:23.628Z,42.20
2022-12-01T09:38:51.450Z,37.22
2022-12-01T09:41:24.099Z,46.60
2022-12-01T09:43:57.421Z,61.33
2022-12-01T09:46:29.412Z,59.15
2022-12-01T09:48:59.502Z,62.90
2022-12-01T09:51:29.816Z,61.42
2022-12-01T09:53:59.666Z,55.38
2022-12-01T09:56:30.864Z,55.78
2022-12-01T09:59:01.482Z,53.28
2022-12-01T10:01:34.514Z,60.90
2022-12-01T10:04:09.162Z,58.35
2022-12-01T10:06:40.155Z,52.55
2022-12-01T10:09:19.822Z,44.20
2022-12-01T10:11:51.870Z,51.05
2022-12-01T10:14:22.022Z,51.40
2022-12-01T10:17:08.259Z,54.72
2022-12-01T10:19:42.383Z,45.78
2022-12-01T10:22:33.719Z,48.03
2022-12-01T10:25:07.028Z,44.50
2022-12-01T10:27:48.491Z,51.00
2022-12-01T10:30:18.498Z,51.75
2022-12-01T10:32:53.273Z,50.80
2022-12-01T10:35:23.920Z,47.30
2022-12-01T10:37:56.375Z,43.95
2022-12-01T10:40:24.793Z,55.88
2022-12-01T10:42:54.779Z,40.08
2022-12-01T10:45:25.153Z,46.05
2022-12-01T10:48:15.762Z,51.72
2022-12-01T10:50:44.932Z,44.05
2022-12-01T10:53:28.773Z,49.38
2022-12-01T10:56:10.592Z,53.60
2022-12-01T10:58:47.755Z,40.40
2022-12-01T11:01:22.761Z,53.47
2022-12-01T11:03:53.288Z,46.78
2022-12-01T11:06:27.618Z,49.85
2022-12-01T11:08:58.465Z,45.97
2022-12-01T11:11:33.524Z,52.42
2022-12-01T11:14:05.981Z,53.15
2022-12-01T11:16:40.742Z,56.85
2022-12-01T11:19:21.917Z,53.28
2022-12-01T11:21:56.651Z,62.47
2022-12-01T11:24:44.986Z,53.40
2022-12-01T11:27:17.757Z,56.22
2022-12-01T11:29:48.898Z,53.92
2022-12-01T11:32:23.749Z,53.17
2022-12-01T11:34:55.203Z,60.42
2022-12-01T11:37:26.749Z,65.15
2022-12-01T11:39:54.942Z,68.72
2022-12-01T11:42:26.579Z,63.17
2022-12-01T11:45:04.037Z,68.60
2022-12-01T11:47:31.944Z,64.22
2022-12-01T11:50:01.669Z,72.03
2022-12-01T11:52:31.793Z,66.75
2022-12-01T11:55:19.786Z,61.80
2022-12-01T11:57:50.928Z,70.18
2022-12-01T12:00:22.084Z,73.53
2022-12-01T12:03:06.838Z,73.40
2022-12-01T12:05:46.794Z,67.63
2022-12-01T12:08:26.443Z,66.15
2022-12-01T12:11:03.099Z,76.38
2022-12-01T12:14:10.897Z,77.45
2022-12-01T12:16:53.402Z,73.28
2022-12-01T12:19:52.265Z,72.38
2022-12-01T12:22:34.537Z,74.88
2022-12-01T12:25:21.113Z,75.68
2022-12-01T12:27:55.669Z,79.43
2022-12-01T12:30:26.409Z,76.32
2022-12-01T12:33:29.722Z,84.82
2022-12-01T12:36:07.783Z,77.25
2022-12-01T12:38:47.270Z,75.60
2022-12-01T12:41:29.418Z,87.20
2022-12-01T12:44:20.481Z,75.80
2022-12-01T12:46:58.021Z,80.53
2022-12-01T12:49:37.388Z,80.72
2022-12-01T12:52:09.122Z,77.25
2022-12-01T12:54:46.257Z,80.18
2022-12-01T12:57:23.848Z,79.13
2022-12-01T12:59:58.762Z,82.22
2022-12-01T13:02:34.453Z,80.30
2022-12-01T13:05:08.152Z,81.25
2022-12-01T13:07:42.215Z,75.75
2022-12-01T13:10:24.046Z,73.50
2022-12-01T13:13:00.934Z,76.00
2022-12-01T13:15:31.513Z,76.40
2022-12-01T13:18:05.079Z,83.97
2022-12-01T13:20:37.584Z,77.15
2022-12-01T13:23:05.992Z,84.28
2022-12-01T13:25:38.154Z,82.38
2022-12-01T13:28:15.469Z,91.30
2022-12-01T13:30:59.455Z,84.18
2022-12-01T13:33:27.667Z,75.50
2022-12-01T13:36:23.005Z,83.38
2022-12-01T13:38:57.141Z,83.75
2022-12-01T13:41:29.270Z,77.00
2022-12-01T13:44:04.563Z,82.80
2022-12-01T13:46:34.518Z,75.30
2022-12-01T13:49:04.844Z,71.55
2022-12-01T13:52:05.685Z,87.30
2022-12-01T13:54:37.190Z,78.57
2022-12-01T13:57:07.970Z,81.60
2022-12-01T13:59:57.929Z,84.85
2022-12-01T14:02:27.851Z,80.65
2022-12-01T14:04:55.862Z,71.70
2022-12-01T14:07:37.869Z,75.88
2022-12-01T14:10:28.277Z,77.05
2022-12-01T14:13:01.050Z,68.35
2022-12-01T14:15:42.053Z,75.13
2022-12-01T14:18:26.892Z,69.45
2022-12-01T14:20:54.723Z,76.60
2022-12-01T14:23:28.926Z,76.47
2022-12-01T14:26:19.260Z,63.78
2022-12-01T14:29:27.794Z,71.40
2022-12-01T14:32:23.679Z,70.75
2022-12-01T14:35:07.309Z,67.15
2022-12-01T14:37:41.653Z,64.90
2022-12-01T14:40:16.591Z,61.50
2022-12-01T14:43:07.004Z,65.35
2022-12-01T14:45:41.556Z,64.22
2022-12-01T14:48:14.090Z,82.68
2022-12-01T14:50:46.819Z,82.90
2022-12-01T14:53:26.174Z,73.63
2022-12-01T14:55:57.467Z,79.68
2022-12-01T14:58:28.968Z,81.65
2022-12-01T15:01:01.700Z,71.18
2022-12-01T15:03:34.275Z,79.13
2022-12-01T15:06:02.277Z,76.32
2022-12-01T15:11:25.167Z,79.68
2022-12-01T15:13:55.795Z,75.88
2022-12-01T15:16:25.299Z,82.15
2022-12-01T15:18:53.536Z,72.93
2022-12-01T15:21:23.952Z,71.43
2022-12-01T15:24:00.176Z,72.63
2022-12-01T15:26:30.891Z,76.10
2022-12-01T15:29:15.295Z,70.43
2022-12-01T15:31:44.878Z,72.38
2022-12-01T15:34:16.521Z,80.03
2022-12-01T15:36:44.981Z,67.85
2022-12-01T15:39:16.504Z,69.75
2022-12-01T15:41:46.525Z,73.07
2022-12-01T15:44:22.563Z,71.50
2022-12-01T15:46:50.229Z,74.15
2022-12-01T15:49:20.483Z,68.75
2022-12-01T15:51:49.949Z,73.63
2022-12-01T15:54:21.605Z,75.78
2022-12-01T15:56:53.153Z,77.88
2022-12-01T15:59:29.651Z,78.85
2022-12-01T16:01:57.677Z,79.82
2022-12-01T16:04:27.604Z,82.97
2022-12-01T16:06:59.282Z,76.35
2022-12-01T16:09:30.985Z,81.57
2022-12-01T16:12:22.713Z,72.75
2022-12-01T16:14:55.576Z,78.35
2022-12-01T16:17:24.142Z,69.72
2022-12-01T16:20:16.398Z,73.85
2022-12-01T16:22:45.984Z,79.80
2022-12-01T16:25:18.763Z,76.28
2022-12-01T16:27:53.371Z,80.13
2022-12-01T16:30:24.687Z,83.22
2022-12-01T16:32:53.000Z,80.40
2022-12-01T16:35:24.617Z,79.18
2022-12-01T16:37:52.242Z,78.28
2022-12-01T16:40:20.382Z,83.43
2022-12-01T16:42:49.711Z,80.97
2022-12-01T16:45:18.897Z,79.15
2022-12-01T16:47:49.566Z,88.78
2022-12-01T16:50:19.422Z,78.05
2022-12-01T16:52:48.317Z,83.13
2022-12-01T16:55:39.041Z,74.88
2022-12-01T16:58:06.836Z,89.47
2022-12-01T17:00:35.058Z,71.78
2022-12-01T17:03:04.752Z,70.22
2022-12-01T17:05:32.852Z,74.90
2022-12-01T17:08:00.576Z,74.57
2022-12-01T17:10:28.268Z,75.45
2022-12-01T17:12:55.925Z,64.32
2022-12-01T17:15:23.514Z,68.57
2022-12-01T17:17:51.221Z,74.70
2022-12-01T17:20:20.335Z,73.80
2022-12-01T17:22:47.929Z,76.00
2022-12-01T17:25:15.578Z,77.50
2022-12-01T17:27:44.000Z,74.28
2022-12-01T17:30:12.815Z,77.93
2022-12-01T17:32:40.435Z,86.72
2022-12-01T17:35:08.847Z,73.75
2022-12-01T17:37:37.896Z,77.20
2022-12-01T17:40:06.696Z,76.35
2022-12-01T17:42:34.800Z,73.28
2022-12-01T17:45:02.619Z,77.47
2022-12-01T17:47:30.214Z,67.18
2022-12-01T17:49:57.809Z,74.53
2022-12-01T17:52:28.368Z,75.38
2022-12-01T17:54:57.994Z,78.18
2022-12-01T17:57:26.248Z,75.57
2022-12-01T17:59:53.927Z,61.13
2022-12-01T18:02:21.661Z,61.28
2022-12-01T18:04:49.727Z,58.47
2022-12-01T18:07:17.681Z,56.88
2022-12-01T18:09:45.355Z,61.45
2022-12-01T18:12:14.381Z,65.38
2022-12-01T18:14:42.007Z,59.33
2022-12-01T18:17:09.746Z,67.80
2022-12-01T18:19:37.721Z,63.22
2022-12-01T18:22:05.436Z,62.33
2022-12-01T18:24:33.166Z,60.45
2022-12-01T18:27:00.835Z,70.40
2022-12-01T18:29:29.827Z,60.17
2022-12-01T18:31:58.700Z,69.22
2022-12-01T18:34:29.302Z,63.40
2022-12-01T18:36:57.021Z,67.78
2022-12-01T18:39:24.687Z,70.18
2022-12-01T18:41:52.431Z,65.57
2022-12-01T18:44:22.566Z,70.38
2022-12-01T18:46:51.684Z,67.68
2022-12-01T18:49:19.827Z,63.88
2022-12-01T18:51:47.452Z,55.78
2022-12-01T18:54:16.390Z,57.03
2022-12-01T18:56:44.090Z,63.55
2022-12-01T18:59:13.492Z,66.60
2022-12-01T19:01:44.134Z,59.13
2022-12-01T19:04:15.708Z,61.38
2022-12-01T19:06:44.797Z,64.63
2022-12-01T19:09:15.235Z,59.00
2022-12-01T19:11:43.770Z,56.60
2022-12-01T19:14:15.688Z,54.80
2022-12-01T19:16:43.549Z,55.83
2022-12-01T19:19:12.810Z,54.45
2022-12-01T19:21:40.560Z,55.00
2022-12-01T19:24:08.594Z,53.42
2022-12-01T19:26:36.257Z,44.58
2022-12-01T19:29:04.462Z,47.00
2022-12-01T19:31:32.177Z,39.85
2022-12-01T19:34:03.614Z,38.65
2022-12-01T19:36:32.932Z,38.15
2022-12-01T19:39:04.052Z,36.05
2022-12-01T19:41:35.046Z,38.13
2022-12-01T19:44:02.782Z,35.30
2022-12-01T19:46:30.439Z,36.25
2022-12-01T19:49:01.113Z,41.15
2022-12-01T19:51:31.513Z,37.20
2022-12-01T19:54:00.539Z,37.90
2022-12-01T19:56:29.627Z,35.65
2022-12-01T19:58:58.014Z,37.15
2022-12-01T20:01:26.915Z,40.85
2022-12-01T20:03:55.545Z,42.58
2022-12-01T20:06:25.443Z,38.63
2022-12-01T20:08:53.770Z,38.72
2022-12-01T20:11:23.412Z,35.05
2022-12-01T20:13:51.409Z,39.70
2022-12-01T20:16:21.163Z,30.33
2022-12-01T20:18:49.551Z,32.45
2022-12-01T20:21:19.309Z,38.70
2022-12-01T20:23:48.270Z,38.10
2022-12-01T20:26:17.967Z,38.42
2022-12-01T20:28:48.564Z,38.97
2022-12-01T20:31:20.916Z,36.00
2022-12-01T20:33:49.410Z,39.03
2022-12-01T20:36:17.783Z,37.88
2022-12-01T20:38:45.836Z,41.72
2022-12-01T20:41:13.838Z,40.97
2022-12-01T20:43:41.573Z,43.90
2022-12-01T20:46:11.801Z,43.65
2022-12-01T20:48:39.603Z,41.50
2022-12-01T20:51:08.868Z,48.75
2022-12-01T20:53:37.098Z,45.50
2022-12-01T20:56:04.782Z,48.25
2022-12-01T20:58:37.239Z,44.40
2022-12-01T21:01:08.471Z,49.42
2022-12-01T21:03:39.004Z,46.00
2022-12-01T21:06:07.412Z,51.78
2022-12-01T21:08:36.989Z,56.25
2022-12-01T21:11:06.448Z,50.90
2022-12-01T21:13:39.442Z,56.17
2022-12-01T21:16:14.240Z,54.70
2022-12-01T21:18:51.224Z,58.53
2022-12-01T21:21:25.322Z,48.13
2022-12-01T21:24:09.822Z,52.83
2022-12-01T21:26:38.507Z,50.10
2022-12-01T21:29:18.177Z,55.22
2022-12-01T21:31:46.560Z,54.15
2022-12-01T21:34:19.643Z,59.72
2022-12-01T21:36:48.739Z,55.85
2022-12-01T21:39:18.286Z,51.92
2022-12-01T21:41:45.899Z,63.20
2022-12-01T21:44:16.598Z,61.50
2022-12-01T21:46:45.232Z,58.97
2022-12-01T21:49:18.845Z,70.90
2022-12-01T21:51:47.837Z,58.55
2022-12-01T21:54:19.893Z,58.20
2022-12-01T21:56:48.728Z,51.78
2022-12-01T21:59:20.670Z,51.05
2022-12-01T22:01:49.217Z,52.28
2022-12-01T22:04:21.959Z,60.60
2022-12-01T22:06:52.663Z,53.30
2022-12-01T22:09:26.281Z,50.47
2022-12-01T22:11:55.508Z,63.30
2022-12-01T22:14:25.507Z,50.25
2022-12-01T22:16:57.187Z,49.70
2022-12-01T22:19:30.859Z,63.40
2022-12-01T22:22:01.924Z,61.28
2022-12-01T22:24:35.447Z,60.03
2022-12-01T22:27:32.504Z,57.22
2022-12-01T22:30:03.024Z,55.58
2022-12-01T22:32:39.980Z,62.53
2022-12-01T22:35:22.061Z,61.97
2022-12-01T22:37:51.500Z,57.13
2022-12-01T22:40:35.934Z,56.65
2022-12-01T22:43:25.856Z,63.20
2022-12-01T22:46:11.216Z,58.67
2022-12-01T22:48:41.318Z,51.67
2022-12-01T22:51:24.337Z,64.70
2022-12-01T22:53:57.928Z,55.80
2022-12-01T22:56:30.547Z,58.40
2022-12-01T22:58:58.196Z,65.18
2022-12-01T23:01:28.237Z,59.40
2022-12-01T23:04:09.147Z,56.97
2022-12-01T23:06:58.608Z,60.45
2022-12-01T23:09:30.025Z,57.75
2022-12-01T23:12:02.501Z,57.40
2022-12-01T23:14:30.164Z,62.22
2022-12-01T23:17:05.433Z,54.88
2022-12-01T23:19:33.454Z,64.47
2022-12-01T23:22:03.054Z,61.35
2022-12-01T23:24:33.884Z,58.75
2022-12-01T23:27:02.020Z,74.70
2022-12-01T23:29:31.134Z,60.33
2022-12-01T23:31:58.855Z,64.35
2022-12-01T23:34:26.498Z,64.65
2022-12-01T23:36:54.166Z,73.88
2022-12-01T23:39:30.149Z,63.10
2022-12-01T23:41:57.841Z,72.75
2022-12-01T23:44:36.432Z,77.80
2022-12-01T23:47:04.825Z,56.22
2022-12-01T23:49:35.375Z,59.83
2022-12-01T23:52:05.024Z,59.67
2022-12-01T23:54:35.686Z,39.33
2022-12-01T23:57:05.317Z,54.17
2022-12-01T23:59:33.112Z,42.17
